Terminal Aerodrome Forecast
Issued by NWS Lake Charles, LA

Home | Current Version | Previous Version | Text Only | Print | Product List | Glossary On
Versions: 1 2 3 4 5 6 7 8 9 10 11 12 13 14 15 16 17 18 19 20 21
000
FTUS44 KLCH 191100
TAFARA
TAF
KARA 191123Z 1912/2012 10003KT 6SM BR FEW015 BKN150
     FM191400 09006KT P6SM FEW025 BKN050
     FM191800 12009KT P6SM VCSH SCT050
     FM200000 12004KT P6SM FEW050=

USA.gov is the U.S. government's official web portal to all federal, state and local government web resources and services.